Lewisville's Hourly Summary for Sunday, April 16, 2017
Hour Temp
(f)
RH
(%)
Solar Rad.
(MJ/m2)
Rainfall
(in)
Wind
(mph)
4/16/2017 12:00 AM 72 70 0 0 5.42
4/16/2017 1:00 AM 71 70 0 0 5.83
4/16/2017 2:00 AM 71 71 0 0 8.44
4/16/2017 3:00 AM 71 71 0 0 9.28
4/16/2017 4:00 AM 70 74 0 0 9.16
4/16/2017 5:00 AM 69 78 0 0 7.63
4/16/2017 6:00 AM 68 84 0 0 6.27
4/16/2017 7:00 AM 67 87 0 0 6.62
4/16/2017 8:00 AM 67 88 0.06 0 5.42
4/16/2017 9:00 AM 68 83 0.39 0 7.38
4/16/2017 10:00 AM 70 80 0.25 0 7.75
4/16/2017 11:00 AM 71 73 0.64 0 8.18
4/16/2017 12:00 PM 74 67 1.17 0 8.11
4/16/2017 1:00 PM 75 65 1.35 0 8.04
4/16/2017 2:00 PM 76 62 1.62 0 8.19
4/16/2017 3:00 PM 77 60 2.18 0 10.19
4/16/2017 4:00 PM 78 60 2.29 0 10.36
4/16/2017 5:00 PM 78 60 1.68 0 10.59
4/16/2017 6:00 PM 78 59 0.81 0 7.52
4/16/2017 7:00 PM 77 58 0.4 0 6.2
4/16/2017 8:00 PM 77 61 0.1 0 2.76
4/16/2017 9:00 PM 73 66 0 0 0.08
4/16/2017 10:00 PM 72 78 0 0 0.29
4/16/2017 11:00 PM 71 77 0 0 0.06
Data Summary 72 70 12.94 0.00 6.66